Main page
METAR-TAF:

METAR-TAF

Airports :

Pula, Croatia

Pula Airport

latitude: 44-54N, longitude: 013-55E, elevation: 63 m

Current weather observation

The report was made 31 minutes ago, at 02:30 UTC
Wind 5 kt from the East/Northeast
Temperature 16°C
Humidity 72%
Pressure 1021 hPa
Visibility 10 km or more
no clouds below 1500 m and no cumulonimbus

METAR: LDPL 280230Z AUTO 06005KT CAVOK 16/11 Q1021 NOSIG

Time: 05:01 (03:01 UTC)

Forecast

The report was made 3 hours and 36 minutes ago, at 23:25 UTC
Forecast valid from 28 at 00 UTC to 28 at 24 UTC
Wind 5 kt from the East
Visibility 10 km or more
no clouds below 1500 m and no cumulonimbus
Becoming
from 28 at 10 UTC to 28 at 12 UTC
Wind 10 kt from the West
Becoming
from 28 at 18 UTC to 28 at 20 UTC
Wind 2 kt from variable directions

TAF: LDPL 272325Z 2800/2824 08005KT CAVOK TX26/2812Z TN14/2802Z BECMG 2810/2812 27010KT BECMG 2818/2820 VRB02KT

Weather observations and forecasts of more than 4000 airports (METAR and TAF reports).

The available stations are represented by yellow and red dots on the map.

Hover mouse over dot to see the name of the station.

Then click to see weather observations and forecasts.

To change the map : click on the green buttons with a black cross to zoom in, on the green button with a dash to zoom out, or on the green arrows for adjacent maps.


METAR-TAF: